sensor_id;sensor_type;location;lat;lon;timestamp;pressure;altitude;pressure_sealevel;temperature;humidity
44309;BME280;30022;55.846;37.340;2023-02-03T00:03:11;48200.34;;;-143.51;100.00
44309;BME280;30022;55.846;37.340;2023-02-03T00:05:37;48149.00;;;-143.51;100.00
44309;BME280;30022;55.846;37.340;2023-02-03T00:08:03;48107.50;;;-143.51;100.00
44309;BME280;30022;55.846;37.340;2023-02-03T00:18:45;48277.41;;;-143.51;100.00
44309;BME280;30022;55.846;37.340;2023-02-03T00:21:10;48312.97;;;-143.51;100.00
44309;BME280;30022;55.846;37.340;2023-02-03T00:23:38;48316.91;;;-143.51;100.00
44309;BME280;30022;55.846;37.340;2023-02-03T00:26:08;48397.94;;;-143.51;100.00
44309;BME280;30022;55.846;37.340;2023-02-03T00:28:35;48277.41;;;-143.51;100.00
44309;BME280;30022;55.846;37.340;2023-02-03T00:31:00;48073.91;;;-143.51;100.00
44309;BME280;30022;55.846;37.340;2023-02-03T00:33:26;48075.91;;;-143.51;100.00
44309;BME280;30022;55.846;37.340;2023-02-03T00:35:51;48071.94;;;-143.51;100.00
44309;BME280;30022;55.846;37.340;2023-02-03T00:38:17;48024.53;;;-143.51;100.00
44309;BME280;30022;55.846;37.340;2023-02-03T00:40:50;48020.56;;;-143.51;100.00
44309;BME280;30022;55.846;37.340;2023-02-03T00:43:15;47987.00;;;-143.51;100.00
44309;BME280;30022;55.846;37.340;2023-02-03T00:45:41;48004.78;;;-143.51;100.00
44309;BME280;30022;55.846;37.340;2023-02-03T00:48:07;48044.28;;;-143.51;100.00
44309;BME280;30022;55.846;37.340;2023-02-03T00:50:32;47994.91;;;-143.51;100.00
44309;BME280;30022;55.846;37.340;2023-02-03T00:52:58;47868.47;;;-143.51;100.00
44309;BME280;30022;55.846;37.340;2023-02-03T00:55:24;47902.03;;;-143.51;100.00
44309;BME280;30022;55.846;37.340;2023-02-03T00:57:50;47882.28;;;-143.51;100.00
44309;BME280;30022;55.846;37.340;2023-02-03T01:00:16;47862.53;;;-143.51;100.00
44309;BME280;30022;55.846;37.340;2023-02-03T01:02:42;47832.91;;;-143.51;100.00
44309;BME280;30022;55.846;37.340;2023-02-03T01:05:07;47935.63;;;-143.51;100.00
44309;BME280;30022;55.846;37.340;2023-02-03T01:07:33;47834.88;;;-143.51;100.00
44309;BME280;30022;55.846;37.340;2023-02-03T01:09:58;47862.53;;;-143.51;100.00
44309;BME280;30022;55.846;37.340;2023-02-03T01:12:24;47866.50;;;-143.51;100.00
44309;BME280;30022;55.846;37.340;2023-02-03T01:14:50;47850.69;;;-143.51;100.00
44309;BME280;30022;55.846;37.340;2023-02-03T01:17:15;47870.44;;;-143.51;100.00
44309;BME280;30022;55.846;37.340;2023-02-03T01:19:41;47975.13;;;-143.51;100.00
44309;BME280;30022;55.846;37.340;2023-02-03T01:22:06;47965.25;;;-143.51;100.00
44309;BME280;30022;55.846;37.340;2023-02-03T01:24:32;48032.44;;;-143.51;100.00
44309;BME280;30022;55.846;37.340;2023-02-03T01:26:57;48158.88;;;-143.51;100.00
44309;BME280;30022;55.846;37.340;2023-02-03T01:29:23;48299.13;;;-143.51;100.00
44309;BME280;30022;55.846;37.340;2023-02-03T01:31:49;48498.69;;;-143.51;100.00
44309;BME280;30022;55.846;37.340;2023-02-03T01:34:14;48403.84;;;-143.51;100.00
44309;BME280;30022;55.846;37.340;2023-02-03T01:36:43;48415.72;;;-143.51;100.00
44309;BME280;30022;55.846;37.340;2023-02-03T01:39:08;48522.41;;;-143.51;100.00
44309;BME280;30022;55.846;37.340;2023-02-03T01:41:36;48528.31;;;-143.51;100.00
44309;BME280;30022;55.846;37.340;2023-02-03T01:44:30;48376.19;;;-143.51;100.00
44309;BME280;30022;55.846;37.340;2023-02-03T01:46:47;48336.69;;;-143.51;100.00
44309;BME280;30022;55.846;37.340;2023-02-03T01:49:19;48342.59;;;-143.51;100.00
44309;BME280;30022;55.846;37.340;2023-02-03T01:51:47;48237.91;;;-143.51;100.00
44309;BME280;30022;55.846;37.340;2023-02-03T01:54:17;48281.34;;;-143.51;100.00
44309;BME280;30022;55.846;37.340;2023-02-03T01:56:46;48259.63;;;-143.51;100.00
44309;BME280;30022;55.846;37.340;2023-02-03T01:59:13;48247.78;;;-143.51;100.00
44309;BME280;30022;55.846;37.340;2023-02-03T02:01:42;48378.16;;;-143.51;100.00
44309;BME280;30022;55.846;37.340;2023-02-03T02:04:08;48314.94;;;-143.51;100.00
44309;BME280;30022;55.846;37.340;2023-02-03T02:06:34;48277.41;;;-143.51;100.00
44309;BME280;30022;55.846;37.340;2023-02-03T02:09:00;48320.88;;;-143.51;100.00
44309;BME280;30022;55.846;37.340;2023-02-03T02:11:26;48360.38;;;-143.51;100.00
44309;BME280;30022;55.846;37.340;2023-02-03T02:13:52;48305.06;;;-143.51;100.00
44309;BME280;30022;55.846;37.340;2023-02-03T02:32:46;48190.47;;;-143.51;100.00
44309;BME280;30022;55.846;37.340;2023-02-03T02:35:37;48032.44;;;-143.51;100.00
44309;BME280;30022;55.846;37.340;2023-02-03T02:40:59;47951.44;;;-143.51;100.00
44309;BME280;30022;55.846;37.340;2023-02-03T02:46:00;48000.81;;;-143.51;100.00
44309;BME280;30022;55.846;37.340;2023-02-03T02:48:46;48117.38;;;-143.51;100.00
44309;BME280;30022;55.846;37.340;2023-02-03T02:51:13;48010.69;;;-143.51;100.00
44309;BME280;30022;55.846;37.340;2023-02-03T02:53:54;47975.13;;;-143.51;100.00
44309;BME280;30022;55.846;37.340;2023-02-03T02:56:21;48008.72;;;-143.51;100.00
44309;BME280;30022;55.846;37.340;2023-02-03T02:58:48;48079.84;;;-143.51;100.00
44309;BME280;30022;55.846;37.340;2023-02-03T03:01:15;48145.03;;;-143.51;100.00
44309;BME280;30022;55.846;37.340;2023-02-03T03:03:41;48087.75;;;-143.51;100.00
44309;BME280;30022;55.846;37.340;2023-02-03T03:06:21;48135.16;;;-143.51;100.00
44309;BME280;30022;55.846;37.340;2023-02-03T03:11:14;48141.09;;;-143.51;100.00
44309;BME280;30022;55.846;37.340;2023-02-03T03:13:42;48101.56;;;-143.51;100.00
44309;BME280;30022;55.846;37.340;2023-02-03T03:16:11;48127.25;;;-143.51;100.00
44309;BME280;30022;55.846;37.340;2023-02-03T03:18:43;48212.22;;;-143.51;100.00
44309;BME280;30022;55.846;37.340;2023-02-03T03:21:10;48073.91;;;-143.51;100.00
44309;BME280;30022;55.846;37.340;2023-02-03T03:23:38;48145.03;;;-143.51;100.00
44309;BME280;30022;55.846;37.340;2023-02-03T03:28:34;48156.88;;;-143.51;100.00
44309;BME280;30022;55.846;37.340;2023-02-03T03:31:02;48133.19;;;-143.51;100.00
44309;BME280;30022;55.846;37.340;2023-02-03T03:33:28;48309.00;;;-143.51;100.00
44309;BME280;30022;55.846;37.340;2023-02-03T03:38:24;48222.09;;;-143.51;100.00
44309;BME280;30022;55.846;37.340;2023-02-03T03:44:01;48222.09;;;-143.51;100.00
44309;BME280;30022;55.846;37.340;2023-02-03T03:46:29;48245.78;;;-143.51;100.00
44309;BME280;30022;55.846;37.340;2023-02-03T03:48:57;48123.31;;;-143.51;100.00
44309;BME280;30022;55.846;37.340;2023-02-03T03:51:27;48160.84;;;-143.51;100.00
44309;BME280;30022;55.846;37.340;2023-02-03T03:53:52;48115.41;;;-143.51;100.00
44309;BME280;30022;55.846;37.340;2023-02-03T03:56:26;48103.56;;;-143.51;100.00
44309;BME280;30022;55.846;37.340;2023-02-03T03:58:52;48111.44;;;-143.51;100.00
44309;BME280;30022;55.846;37.340;2023-02-03T04:01:18;48214.19;;;-143.51;100.00
44309;BME280;30022;55.846;37.340;2023-02-03T04:03:46;48135.16;;;-143.51;100.00
44309;BME280;30022;55.846;37.340;2023-02-03T04:06:12;48182.56;;;-143.51;100.00
44309;BME280;30022;55.846;37.340;2023-02-03T04:08:38;48204.31;;;-143.51;100.00
44309;BME280;30022;55.846;37.340;2023-02-03T04:11:04;48066.00;;;-143.51;100.00
44309;BME280;30022;55.846;37.340;2023-02-03T04:13:30;48044.28;;;-143.51;100.00
44309;BME280;30022;55.846;37.340;2023-02-03T04:15:56;48085.78;;;-143.51;100.00
44309;BME280;30022;55.846;37.340;2023-02-03T04:18:21;48127.25;;;-143.51;100.00
44309;BME280;30022;55.846;37.340;2023-02-03T04:20:47;48064.03;;;-143.51;100.00
44309;BME280;30022;55.846;37.340;2023-02-03T04:23:12;48156.88;;;-143.51;100.00
44309;BME280;30022;55.846;37.340;2023-02-03T04:25:38;48204.31;;;-143.51;100.00
44309;BME280;30022;55.846;37.340;2023-02-03T04:28:03;48170.72;;;-143.51;100.00
44309;BME280;30022;55.846;37.340;2023-02-03T04:30:30;48099.59;;;-143.51;100.00
44309;BME280;30022;55.846;37.340;2023-02-03T04:32:55;48046.25;;;-143.51;100.00
44309;BME280;30022;55.846;37.340;2023-02-03T04:35:21;48060.09;;;-143.51;100.00
44309;BME280;30022;55.846;37.340;2023-02-03T04:37:47;48160.84;;;-143.51;100.00
44309;BME280;30022;55.846;37.340;2023-02-03T04:40:12;48210.22;;;-143.51;100.00
44309;BME280;30022;55.846;37.340;2023-02-03T04:42:38;48279.38;;;-143.51;100.00
44309;BME280;30022;55.846;37.340;2023-02-03T04:45:05;48265.56;;;-143.51;100.00
44309;BME280;30022;55.846;37.340;2023-02-03T04:47:31;48235.91;;;-143.51;100.00
44309;BME280;30022;55.846;37.340;2023-02-03T04:49:56;48214.19;;;-143.51;100.00
44309;BME280;30022;55.846;37.340;2023-02-03T04:52:22;48194.44;;;-143.51;100.00
44309;BME280;30022;55.846;37.340;2023-02-03T04:54:47;48091.69;;;-143.51;100.00
44309;BME280;30022;55.846;37.340;2023-02-03T04:57:13;48170.72;;;-143.51;100.00
44309;BME280;30022;55.846;37.340;2023-02-03T04:59:38;48121.34;;;-143.51;100.00
44309;BME280;30022;55.846;37.340;2023-02-03T05:02:04;48202.34;;;-143.51;100.00
44309;BME280;30022;55.846;37.340;2023-02-03T05:04:30;48198.38;;;-143.51;100.00
44309;BME280;30022;55.846;37.340;2023-02-03T05:06:56;48198.38;;;-143.51;100.00
44309;BME280;30022;55.846;37.340;2023-02-03T05:09:22;48141.09;;;-143.51;100.00
44309;BME280;30022;55.846;37.340;2023-02-03T05:11:47;48174.66;;;-143.51;100.00
44309;BME280;30022;55.846;37.340;2023-02-03T05:14:13;48143.06;;;-143.51;100.00
44309;BME280;30022;55.846;37.340;2023-02-03T05:16:39;48062.06;;;-143.51;100.00
44309;BME280;30022;55.846;37.340;2023-02-03T05:19:04;48103.56;;;-143.51;100.00
44309;BME280;30022;55.846;37.340;2023-02-03T05:21:30;48111.44;;;-143.51;100.00
44309;BME280;30022;55.846;37.340;2023-02-03T05:23:55;48243.81;;;-143.51;100.00
44309;BME280;30022;55.846;37.340;2023-02-03T05:26:21;48143.06;;;-143.51;100.00
44309;BME280;30022;55.846;37.340;2023-02-03T05:28:46;48182.56;;;-143.51;100.00
44309;BME280;30022;55.846;37.340;2023-02-03T05:31:12;48119.34;;;-143.51;100.00
44309;BME280;30022;55.846;37.340;2023-02-03T05:33:37;48160.84;;;-143.51;100.00
44309;BME280;30022;55.846;37.340;2023-02-03T05:36:03;48038.34;;;-143.51;100.00
44309;BME280;30022;55.846;37.340;2023-02-03T05:38:28;48052.19;;;-143.51;100.00
44309;BME280;30022;55.846;37.340;2023-02-03T05:40:54;48004.78;;;-143.51;100.00
44309;BME280;30022;55.846;37.340;2023-02-03T05:43:38;48133.19;;;-143.51;100.00
44309;BME280;30022;55.846;37.340;2023-02-03T05:46:05;48042.31;;;-143.51;100.00
44309;BME280;30022;55.846;37.340;2023-02-03T05:48:31;48079.84;;;-143.51;100.00
44309;BME280;30022;55.846;37.340;2023-02-03T05:50:56;48020.56;;;-143.51;100.00
44309;BME280;30022;55.846;37.340;2023-02-03T05:53:22;47943.53;;;-143.51;100.00
44309;BME280;30022;55.846;37.340;2023-02-03T05:55:48;48093.69;;;-143.51;100.00
44309;BME280;30022;55.846;37.340;2023-02-03T05:58:13;48030.47;;;-143.51;100.00
44309;BME280;30022;55.846;37.340;2023-02-03T06:00:39;48097.63;;;-143.51;100.00
44309;BME280;30022;55.846;37.340;2023-02-03T06:03:05;47961.31;;;-143.51;100.00
44309;BME280;30022;55.846;37.340;2023-02-03T06:05:31;48000.81;;;-143.51;100.00
44309;BME280;30022;55.846;37.340;2023-02-03T06:07:57;47969.22;;;-143.51;100.00
44309;BME280;30022;55.846;37.340;2023-02-03T06:10:23;48024.53;;;-143.51;100.00
44309;BME280;30022;55.846;37.340;2023-02-03T06:12:49;47949.47;;;-143.51;100.00
44309;BME280;30022;55.846;37.340;2023-02-03T06:15:14;47983.03;;;-143.51;100.00
44309;BME280;30022;55.846;37.340;2023-02-03T06:17:44;48008.72;;;-143.51;100.00
44309;BME280;30022;55.846;37.340;2023-02-03T06:20:12;47959.34;;;-143.51;100.00
44309;BME280;30022;55.846;37.340;2023-02-03T06:22:37;47872.41;;;-143.51;100.00
44309;BME280;30022;55.846;37.340;2023-02-03T06:25:03;47882.28;;;-143.51;100.00
44309;BME280;30022;55.846;37.340;2023-02-03T06:27:29;47830.94;;;-143.51;100.00
44309;BME280;30022;55.846;37.340;2023-02-03T06:29:54;47866.50;;;-143.51;100.00
44309;BME280;30022;55.846;37.340;2023-02-03T06:32:20;47888.22;;;-143.51;100.00
44309;BME280;30022;55.846;37.340;2023-02-03T06:34:45;47963.28;;;-143.51;100.00
44309;BME280;30022;55.846;37.340;2023-02-03T06:37:11;47967.25;;;-143.51;100.00
44309;BME280;30022;55.846;37.340;2023-02-03T06:39:37;47823.03;;;-143.51;100.00
44309;BME280;30022;55.846;37.340;2023-02-03T06:42:02;47708.44;;;-143.51;100.00
44309;BME280;30022;55.846;37.340;2023-02-03T06:44:28;47767.72;;;-143.51;100.00
44309;BME280;30022;55.846;37.340;2023-02-03T06:46:53;47840.81;;;-143.51;100.00
44309;BME280;30022;55.846;37.340;2023-02-03T06:49:20;47834.88;;;-143.51;100.00
44309;BME280;30022;55.846;37.340;2023-02-03T06:51:46;47817.09;;;-143.51;100.00
44309;BME280;30022;55.846;37.340;2023-02-03T06:54:12;47844.75;;;-143.51;100.00
44309;BME280;30022;55.846;37.340;2023-02-03T06:56:38;47755.88;;;-143.51;100.00
44309;BME280;30022;55.846;37.340;2023-02-03T06:59:03;47661.03;;;-143.51;100.00
44309;BME280;30022;55.846;37.340;2023-02-03T07:01:29;47629.44;;;-143.51;100.00
44309;BME280;30022;55.846;37.340;2023-02-03T07:03:56;47655.13;;;-143.51;100.00
44309;BME280;30022;55.846;37.340;2023-02-03T07:06:23;47668.94;;;-143.51;100.00
44309;BME280;30022;55.846;37.340;2023-02-03T07:08:56;47740.06;;;-143.51;100.00
44309;BME280;30022;55.846;37.340;2023-02-03T07:11:22;47799.31;;;-143.51;100.00
44309;BME280;30022;55.846;37.340;2023-02-03T07:13:47;47759.81;;;-143.51;100.00
44309;BME280;30022;55.846;37.340;2023-02-03T07:16:13;47746.00;;;-143.51;100.00
44309;BME280;30022;55.846;37.340;2023-02-03T07:18:39;47793.41;;;-143.51;100.00
44309;BME280;30022;55.846;37.340;2023-02-03T07:21:05;47730.19;;;-143.51;100.00
44309;BME280;30022;55.846;37.340;2023-02-03T07:23:31;47698.56;;;-143.51;100.00
44309;BME280;30022;55.846;37.340;2023-02-03T07:26:00;47730.19;;;-143.51;100.00
44309;BME280;30022;55.846;37.340;2023-02-03T07:28:27;47742.03;;;-143.51;100.00
44309;BME280;30022;55.846;37.340;2023-02-03T07:30:53;47708.44;;;-143.51;100.00
44309;BME280;30022;55.846;37.340;2023-02-03T07:33:18;47744.00;;;-143.51;100.00
44309;BME280;30022;55.846;37.340;2023-02-03T07:35:50;47747.97;;;-143.51;100.00
44309;BME280;30022;55.846;37.340;2023-02-03T07:38:15;47749.94;;;-143.51;100.00
44309;BME280;30022;55.846;37.340;2023-02-03T07:40:41;47708.44;;;-143.51;100.00
44309;BME280;30022;55.846;37.340;2023-02-03T07:43:06;47621.53;;;-143.51;100.00
44309;BME280;30022;55.846;37.340;2023-02-03T07:45:38;47532.66;;;-143.51;100.00
44309;BME280;30022;55.846;37.340;2023-02-03T07:48:03;47493.16;;;-143.51;100.00
44309;BME280;30022;55.846;37.340;2023-02-03T07:50:29;47441.78;;;-143.51;100.00
44309;BME280;30022;55.846;37.340;2023-02-03T07:52:55;47424.00;;;-143.51;100.00
44309;BME280;30022;55.846;37.340;2023-02-03T07:55:21;47479.31;;;-143.51;100.00
44309;BME280;30022;55.846;37.340;2023-02-03T07:57:46;47451.66;;;-143.51;100.00
44309;BME280;30022;55.846;37.340;2023-02-03T08:00:15;47420.06;;;-143.51;100.00
44309;BME280;30022;55.846;37.340;2023-02-03T08:02:42;47439.81;;;-143.51;100.00
44309;BME280;30022;55.846;37.340;2023-02-03T08:05:07;47380.56;;;-143.51;100.00
44309;BME280;30022;55.846;37.340;2023-02-03T08:07:33;47406.22;;;-143.51;100.00
44309;BME280;30022;55.846;37.340;2023-02-03T08:09:59;47400.31;;;-143.51;100.00
44309;BME280;30022;55.846;37.340;2023-02-03T08:12:25;47358.81;;;-143.51;100.00
44309;BME280;30022;55.846;37.340;2023-02-03T08:14:50;47382.53;;;-143.51;100.00
44309;BME280;30022;55.846;37.340;2023-02-03T08:17:16;47424.00;;;-143.51;100.00
44309;BME280;30022;55.846;37.340;2023-02-03T08:19:41;47441.78;;;-143.51;100.00
44309;BME280;30022;55.846;37.340;2023-02-03T08:22:07;47424.00;;;-143.51;100.00
44309;BME280;30022;55.846;37.340;2023-02-03T08:24:36;47368.69;;;-143.51;100.00
44309;BME280;30022;55.846;37.340;2023-02-03T08:27:01;47354.88;;;-143.51;100.00
44309;BME280;30022;55.846;37.340;2023-02-03T08:29:27;47339.06;;;-143.51;100.00
44309;BME280;30022;55.846;37.340;2023-02-03T08:32:07;47319.31;;;-143.51;100.00
44309;BME280;30022;55.846;37.340;2023-02-03T08:34:45;47414.13;;;-143.51;100.00
44309;BME280;30022;55.846;37.340;2023-02-03T08:37:17;47376.59;;;-143.51;100.00
44309;BME280;30022;55.846;37.340;2023-02-03T08:39:46;47364.75;;;-143.51;100.00
44309;BME280;30022;55.846;37.340;2023-02-03T08:42:14;47325.25;;;-143.51;100.00
44309;BME280;30022;55.846;37.340;2023-02-03T08:44:52;47374.63;;;-143.51;100.00
44309;BME280;30022;55.846;37.340;2023-02-03T08:47:18;47437.84;;;-143.51;100.00
44309;BME280;30022;55.846;37.340;2023-02-03T08:49:44;47414.13;;;-143.51;100.00
44309;BME280;30022;55.846;37.340;2023-02-03T08:52:10;47418.09;;;-143.51;100.00
44309;BME280;30022;55.846;37.340;2023-02-03T08:54:43;47467.47;;;-143.51;100.00
44309;BME280;30022;55.846;37.340;2023-02-03T08:57:17;47508.94;;;-143.51;100.00
44309;BME280;30022;55.846;37.340;2023-02-03T08:59:43;47587.97;;;-143.51;100.00
44309;BME280;30022;55.846;37.340;2023-02-03T09:02:10;47568.22;;;-143.51;100.00
44309;BME280;30022;55.846;37.340;2023-02-03T09:04:38;47576.09;;;-143.51;100.00
44309;BME280;30022;55.846;37.340;2023-02-03T09:07:03;47651.16;;;-143.51;100.00
44309;BME280;30022;55.846;37.340;2023-02-03T09:09:29;47694.63;;;-143.51;100.00
44309;BME280;30022;55.846;37.340;2023-02-03T09:11:59;47682.78;;;-143.51;100.00
44309;BME280;30022;55.846;37.340;2023-02-03T09:14:46;47726.22;;;-143.51;100.00
44309;BME280;30022;55.846;37.340;2023-02-03T09:17:12;47757.84;;;-143.51;100.00
44309;BME280;30022;55.846;37.340;2023-02-03T09:19:37;47813.16;;;-143.51;100.00
44309;BME280;30022;55.846;37.340;2023-02-03T09:22:03;47955.38;;;-143.51;100.00
44309;BME280;30022;55.846;37.340;2023-02-03T09:24:29;47975.13;;;-143.51;100.00
44309;BME280;30022;55.846;37.340;2023-02-03T09:26:55;48081.81;;;-143.51;100.00
44309;BME280;30022;55.846;37.340;2023-02-03T09:29:21;48478.94;;;-143.51;100.00
44309;BME280;30022;55.846;37.340;2023-02-03T09:31:48;48629.09;;;-143.51;100.00
44309;BME280;30022;55.846;37.340;2023-02-03T09:34:13;48814.81;;;-143.51;100.00
44309;BME280;30022;55.846;37.340;2023-02-03T09:36:39;49291.06;;;-143.51;100.00
44309;BME280;30022;55.846;37.340;2023-02-03T09:39:05;50158.69;;;-143.51;100.00
44309;BME280;30022;55.846;37.340;2023-02-03T09:41:48;50152.75;;;-143.51;100.00
44309;BME280;30022;55.846;37.340;2023-02-03T09:47:15;51404.16;;;-143.51;100.00
44309;BME280;30022;55.846;37.340;2023-02-03T09:49:43;50963.25;;;-143.51;100.00
44309;BME280;30022;55.846;37.340;2023-02-03T09:52:24;51382.41;;;-143.51;100.00
44309;BME280;30022;55.846;37.340;2023-02-03T10:00:42;51880.69;;;-143.51;100.00
44309;BME280;30022;55.846;37.340;2023-02-03T10:03:15;52185.22;;;-143.51;100.00
44309;BME280;30022;55.846;37.340;2023-02-03T10:06:01;52774.59;;;-143.51;100.00
44309;BME280;30022;55.846;37.340;2023-02-03T10:16:22;54016.94;;;-143.51;100.00
44309;BME280;30022;55.846;37.340;2023-02-03T10:19:01;54980.59;;;-143.51;100.00
44309;BME280;30022;55.846;37.340;2023-02-03T10:21:57;57047.22;;;-143.51;100.00
44309;BME280;30022;55.846;37.340;2023-02-03T10:24:27;56805.69;;;-143.51;100.00
44309;BME280;30022;55.846;37.340;2023-02-03T10:27:02;57904.69;;;-143.51;100.00
44309;BME280;30022;55.846;37.340;2023-02-03T10:29:38;57550.19;;;-143.51;100.00
44309;BME280;30022;55.846;37.340;2023-02-03T10:32:14;56631.44;;;-143.51;100.00
44309;BME280;30022;55.846;37.340;2023-02-03T10:34:46;56750.22;;;-143.51;100.00
44309;BME280;30022;55.846;37.340;2023-02-03T10:37:23;55227.97;;;-143.51;100.00
44309;BME280;30022;55.846;37.340;2023-02-03T10:39:50;55152.78;;;-143.51;100.00
44309;BME280;30022;55.846;37.340;2023-02-03T10:42:16;54410.69;;;-143.51;100.00
44309;BME280;30022;55.846;37.340;2023-02-03T10:44:46;53641.03;;;-143.51;100.00
44309;BME280;30022;55.846;37.340;2023-02-03T10:47:27;55158.72;;;-143.51;100.00
44309;BME280;30022;55.846;37.340;2023-02-03T10:50:12;57227.41;;;-143.51;100.00
44309;BME280;30022;55.846;37.340;2023-02-03T10:52:39;57641.28;;;-143.51;100.00
44309;BME280;30022;55.846;37.340;2023-02-03T10:55:06;57225.44;;;-143.51;100.00
44309;BME280;30022;55.846;37.340;2023-02-03T10:57:34;57696.75;;;-143.51;100.00
44309;BME280;30022;55.846;37.340;2023-02-03T11:00:04;58568.19;;;-143.51;100.00
44309;BME280;30022;55.846;37.340;2023-02-03T11:02:30;56710.63;;;-143.51;100.00
44309;BME280;30022;55.846;37.340;2023-02-03T11:07:34;57488.81;;;-143.51;100.00
44309;BME280;30022;55.846;37.340;2023-02-03T11:09:59;57379.91;;;-143.51;100.00
44309;BME280;30022;55.846;37.340;2023-02-03T11:12:25;56354.28;;;-143.51;100.00
44309;BME280;30022;55.846;37.340;2023-02-03T11:14:52;54436.41;;;-143.51;100.00
44309;BME280;30022;55.846;37.340;2023-02-03T11:19:46;55433.81;;;-143.51;100.00
44309;BME280;30022;55.846;37.340;2023-02-03T11:22:31;54416.63;;;-143.51;100.00
44309;BME280;30022;55.846;37.340;2023-02-03T11:25:16;54531.38;;;-143.51;100.00
44309;BME280;30022;55.846;37.340;2023-02-03T11:27:42;56843.28;;;-143.51;100.00
44309;BME280;30022;55.846;37.340;2023-02-03T11:30:26;56669.06;;;-143.51;100.00
44309;BME280;30022;55.846;37.340;2023-02-03T11:32:55;54396.84;;;-143.51;100.00
44309;BME280;30022;55.846;37.340;2023-02-03T11:35:25;53870.53;;;-143.51;100.00
44309;BME280;30022;55.846;37.340;2023-02-03T11:37:51;54660.00;;;-143.51;100.00
44309;BME280;30022;55.846;37.340;2023-02-03T11:40:31;55392.25;;;-143.51;100.00
44309;BME280;30022;55.846;37.340;2023-02-03T11:50:23;58382.00;;;-143.51;100.00
44309;BME280;30022;55.846;37.340;2023-02-03T12:00:40;53920.00;;;-143.51;100.00
44309;BME280;30022;55.846;37.340;2023-02-03T12:03:25;54497.75;;;-143.51;100.00
44309;BME280;30022;55.846;37.340;2023-02-03T12:06:02;53838.88;;;-143.51;100.00
44309;BME280;30022;55.846;37.340;2023-02-03T12:08:38;53439.25;;;-143.51;100.00
44309;BME280;30022;55.846;37.340;2023-02-03T12:11:12;52988.22;;;-143.51;100.00
44309;BME280;30022;55.846;37.340;2023-02-03T12:22:03;51574.19;;;-143.51;100.00
44309;BME280;30022;55.846;37.340;2023-02-03T12:27:09;51908.38;;;-143.51;100.00
44309;BME280;30022;55.846;37.340;2023-02-03T12:29:40;52078.44;;;-143.51;100.00
44309;BME280;30022;55.846;37.340;2023-02-03T12:37:15;51036.41;;;-143.51;100.00
44309;BME280;30022;55.846;37.340;2023-02-03T12:40:01;50297.06;;;-143.51;100.00
44309;BME280;30022;55.846;37.340;2023-02-03T12:42:29;50055.91;;;-143.51;100.00
44309;BME280;30022;55.846;37.340;2023-02-03T12:45:09;49980.81;;;-143.51;100.00
44309;BME280;30022;55.846;37.340;2023-02-03T12:47:49;50138.91;;;-143.51;100.00
44309;BME280;30022;55.846;37.340;2023-02-03T12:53:01;49757.47;;;-143.51;100.00
44309;BME280;30022;55.846;37.340;2023-02-03T12:55:34;49844.41;;;-143.51;100.00
44309;BME280;30022;55.846;37.340;2023-02-03T13:08:06;49295.00;;;-143.51;100.00
44309;BME280;30022;55.846;37.340;2023-02-03T13:13:22;49190.28;;;-143.51;100.00
44309;BME280;30022;55.846;37.340;2023-02-03T13:15:50;48911.66;;;-143.51;100.00
44309;BME280;30022;55.846;37.340;2023-02-03T13:20:42;48810.88;;;-143.51;100.00
44309;BME280;30022;55.846;37.340;2023-02-03T13:23:10;48633.03;;;-143.51;100.00
44309;BME280;30022;55.846;37.340;2023-02-03T13:30:51;48876.06;;;-143.51;100.00
44309;BME280;30022;55.846;37.340;2023-02-03T13:42:06;52151.63;;;-143.51;100.00
44309;BME280;30022;55.846;37.340;2023-02-03T13:44:33;52614.41;;;-143.51;100.00
44309;BME280;30022;55.846;37.340;2023-02-03T13:47:01;53555.97;;;-143.51;100.00
44309;BME280;30022;55.846;37.340;2023-02-03T13:49:27;54420.56;;;-143.51;100.00
44309;BME280;30022;55.846;37.340;2023-02-03T13:51:54;54481.91;;;-143.51;100.00
44309;BME280;30022;55.846;37.340;2023-02-03T13:56:56;57166.03;;;-143.51;100.00
44309;BME280;30022;55.846;37.340;2023-02-03T13:59:29;58906.94;;;-143.51;100.00
44309;BME280;30022;55.846;37.340;2023-02-03T14:10:04;59592.41;;;-143.51;100.00
44309;BME280;30022;55.846;37.340;2023-02-03T14:12:31;59955.00;;;-143.51;100.00
44309;BME280;30022;55.846;37.340;2023-02-03T14:14:59;59471.56;;;-143.51;100.00
44309;BME280;30022;55.846;37.340;2023-02-03T14:20:53;60161.09;;;-143.51;100.00
44309;BME280;30022;55.846;37.340;2023-02-03T14:23:05;60436.53;;;-143.51;100.00
44309;BME280;30022;55.846;37.340;2023-02-03T14:25:52;60486.09;;;-143.51;100.00
44309;BME280;30022;55.846;37.340;2023-02-03T14:28:23;59538.91;;;-143.51;100.00
44309;BME280;30022;55.846;37.340;2023-02-03T14:31:04;58902.97;;;-143.51;100.00
44309;BME280;30022;55.846;37.340;2023-02-03T14:36:28;58966.38;;;-143.51;100.00
44309;BME280;30022;55.846;37.340;2023-02-03T14:38:55;59416.06;;;-143.51;100.00
44309;BME280;30022;55.846;37.340;2023-02-03T14:42:08;58839.59;;;-143.51;100.00
44309;BME280;30022;55.846;37.340;2023-02-03T14:46:57;59283.34;;;-143.51;100.00
44309;BME280;30022;55.846;37.340;2023-02-03T14:49:32;59221.91;;;-143.51;100.00
44309;BME280;30022;55.846;37.340;2023-02-03T14:52:24;59364.56;;;-143.51;100.00
44309;BME280;30022;55.846;37.340;2023-02-03T14:57:37;59986.72;;;-143.51;100.00